sensor_id;sensor_type;location;lat;lon;timestamp;pressure;altitude;pressure_sealevel;temperature;humidity
24610;BME280;12758;47.890;11.694;2023-04-25T00:01:38;93233.69;;;9.93;100.00
24610;BME280;12758;47.890;11.694;2023-04-25T00:04:05;93227.09;;;9.82;100.00
24610;BME280;12758;47.890;11.694;2023-04-25T00:06:31;93227.34;;;9.89;100.00
24610;BME280;12758;47.890;11.694;2023-04-25T00:08:57;93221.69;;;9.94;100.00
24610;BME280;12758;47.890;11.694;2023-04-25T00:11:23;93227.56;;;9.71;100.00
24610;BME280;12758;47.890;11.694;2023-04-25T00:13:49;93222.13;;;9.59;100.00
24610;BME280;12758;47.890;11.694;2023-04-25T00:16:16;93224.84;;;9.59;100.00
24610;BME280;12758;47.890;11.694;2023-04-25T00:18:42;93214.47;;;9.73;100.00
24610;BME280;12758;47.890;11.694;2023-04-25T00:21:09;93215.25;;;9.74;100.00
24610;BME280;12758;47.890;11.694;2023-04-25T00:23:35;93215.94;;;9.71;100.00
24610;BME280;12758;47.890;11.694;2023-04-25T00:26:02;93213.31;;;9.62;100.00
24610;BME280;12758;47.890;11.694;2023-04-25T00:28:28;93207.69;;;9.67;100.00
24610;BME280;12758;47.890;11.694;2023-04-25T00:30:54;93213.78;;;9.52;100.00
24610;BME280;12758;47.890;11.694;2023-04-25T00:33:20;93214.69;;;9.68;100.00
24610;BME280;12758;47.890;11.694;2023-04-25T00:35:46;93211.47;;;9.29;100.00
24610;BME280;12758;47.890;11.694;2023-04-25T00:38:13;93215.69;;;9.51;100.00
24610;BME280;12758;47.890;11.694;2023-04-25T00:40:39;93217.06;;;9.57;100.00
24610;BME280;12758;47.890;11.694;2023-04-25T00:43:05;93215.38;;;9.77;100.00
24610;BME280;12758;47.890;11.694;2023-04-25T00:45:31;93219.44;;;9.84;100.00
24610;BME280;12758;47.890;11.694;2023-04-25T00:47:58;93213.34;;;9.87;100.00
24610;BME280;12758;47.890;11.694;2023-04-25T00:50:24;93209.97;;;9.90;100.00
24610;BME280;12758;47.890;11.694;2023-04-25T00:52:50;93209.50;;;9.88;100.00
24610;BME280;12758;47.890;11.694;2023-04-25T00:55:17;93212.88;;;9.72;100.00
24610;BME280;12758;47.890;11.694;2023-04-25T00:57:43;93214.38;;;9.70;100.00
24610;BME280;12758;47.890;11.694;2023-04-25T01:00:10;93211.78;;;9.86;100.00
24610;BME280;12758;47.890;11.694;2023-04-25T01:02:36;93215.13;;;9.95;100.00
24610;BME280;12758;47.890;11.694;2023-04-25T01:05:03;93207.69;;;10.04;100.00
24610;BME280;12758;47.890;11.694;2023-04-25T01:07:30;93204.53;;;10.02;100.00
24610;BME280;12758;47.890;11.694;2023-04-25T01:09:56;93202.81;;;9.97;100.00
24610;BME280;12758;47.890;11.694;2023-04-25T01:12:22;93206.00;;;9.99;100.00
24610;BME280;12758;47.890;11.694;2023-04-25T01:14:48;93208.94;;;9.94;100.00
24610;BME280;12758;47.890;11.694;2023-04-25T01:17:14;93206.47;;;9.89;100.00
24610;BME280;12758;47.890;11.694;2023-04-25T01:19:41;93211.53;;;9.78;100.00
24610;BME280;12758;47.890;11.694;2023-04-25T01:22:08;93206.22;;;9.82;100.00
24610;BME280;12758;47.890;11.694;2023-04-25T01:24:35;93203.59;;;9.49;100.00
24610;BME280;12758;47.890;11.694;2023-04-25T01:27:02;93203.41;;;9.54;100.00
24610;BME280;12758;47.890;11.694;2023-04-25T01:29:29;93199.09;;;9.65;100.00
24610;BME280;12758;47.890;11.694;2023-04-25T01:31:55;93194.59;;;9.69;100.00
24610;BME280;12758;47.890;11.694;2023-04-25T01:34:22;93198.66;;;9.75;100.00
24610;BME280;12758;47.890;11.694;2023-04-25T01:36:48;93201.81;;;9.77;100.00
24610;BME280;12758;47.890;11.694;2023-04-25T01:39:15;93198.22;;;9.73;100.00
24610;BME280;12758;47.890;11.694;2023-04-25T01:41:42;93196.41;;;9.65;100.00
24610;BME280;12758;47.890;11.694;2023-04-25T01:44:08;93193.09;;;9.60;100.00
24610;BME280;12758;47.890;11.694;2023-04-25T01:46:34;93191.75;;;9.66;100.00
24610;BME280;12758;47.890;11.694;2023-04-25T01:49:00;93191.44;;;9.55;100.00
24610;BME280;12758;47.890;11.694;2023-04-25T01:51:26;93185.34;;;9.70;100.00
24610;BME280;12758;47.890;11.694;2023-04-25T01:53:52;93194.16;;;9.67;100.00
24610;BME280;12758;47.890;11.694;2023-04-25T01:56:20;93183.63;;;9.29;100.00
24610;BME280;12758;47.890;11.694;2023-04-25T01:58:46;93188.25;;;9.28;100.00
24610;BME280;12758;47.890;11.694;2023-04-25T02:01:12;93187.56;;;9.31;100.00
24610;BME280;12758;47.890;11.694;2023-04-25T02:03:38;93185.00;;;9.47;100.00
24610;BME280;12758;47.890;11.694;2023-04-25T02:06:05;93190.50;;;9.39;100.00
24610;BME280;12758;47.890;11.694;2023-04-25T02:08:31;93178.44;;;9.36;100.00
24610;BME280;12758;47.890;11.694;2023-04-25T02:10:57;93187.59;;;9.44;100.00
24610;BME280;12758;47.890;11.694;2023-04-25T02:13:23;93185.56;;;9.41;100.00
24610;BME280;12758;47.890;11.694;2023-04-25T02:15:49;93182.03;;;9.40;100.00
24610;BME280;12758;47.890;11.694;2023-04-25T02:18:15;93178.88;;;9.26;100.00
24610;BME280;12758;47.890;11.694;2023-04-25T02:20:42;93184.16;;;9.22;100.00
24610;BME280;12758;47.890;11.694;2023-04-25T02:23:08;93179.34;;;8.95;100.00
24610;BME280;12758;47.890;11.694;2023-04-25T02:25:34;93186.28;;;8.71;100.00
24610;BME280;12758;47.890;11.694;2023-04-25T02:28:00;93186.94;;;8.68;100.00
24610;BME280;12758;47.890;11.694;2023-04-25T02:30:27;93177.13;;;8.97;100.00
24610;BME280;12758;47.890;11.694;2023-04-25T02:32:53;93175.47;;;9.17;100.00
24610;BME280;12758;47.890;11.694;2023-04-25T02:35:19;93182.28;;;9.35;100.00
24610;BME280;12758;47.890;11.694;2023-04-25T02:37:45;93180.56;;;9.30;100.00
24610;BME280;12758;47.890;11.694;2023-04-25T02:40:11;93180.13;;;9.41;100.00
24610;BME280;12758;47.890;11.694;2023-04-25T02:42:37;93180.75;;;9.13;100.00
24610;BME280;12758;47.890;11.694;2023-04-25T02:45:04;93172.19;;;9.23;100.00
24610;BME280;12758;47.890;11.694;2023-04-25T02:47:31;93170.22;;;9.45;100.00
24610;BME280;12758;47.890;11.694;2023-04-25T02:49:57;93172.44;;;9.43;100.00
24610;BME280;12758;47.890;11.694;2023-04-25T02:52:23;93168.84;;;9.51;100.00
24610;BME280;12758;47.890;11.694;2023-04-25T02:54:50;93154.16;;;9.27;100.00
24610;BME280;12758;47.890;11.694;2023-04-25T02:57:16;93163.41;;;9.26;100.00
24610;BME280;12758;47.890;11.694;2023-04-25T02:59:42;93157.47;;;8.88;100.00
24610;BME280;12758;47.890;11.694;2023-04-25T03:02:08;93165.47;;;8.51;100.00
24610;BME280;12758;47.890;11.694;2023-04-25T03:04:34;93163.03;;;9.03;100.00
24610;BME280;12758;47.890;11.694;2023-04-25T03:07:00;93165.38;;;8.93;100.00
24610;BME280;12758;47.890;11.694;2023-04-25T03:09:26;93158.59;;;7.90;100.00
24610;BME280;12758;47.890;11.694;2023-04-25T03:11:52;93162.13;;;7.82;100.00
24610;BME280;12758;47.890;11.694;2023-04-25T03:14:18;93163.34;;;7.93;100.00
24610;BME280;12758;47.890;11.694;2023-04-25T03:16:44;93161.81;;;8.47;100.00
24610;BME280;12758;47.890;11.694;2023-04-25T03:19:11;93160.31;;;8.58;100.00
24610;BME280;12758;47.890;11.694;2023-04-25T03:21:37;93153.63;;;8.89;100.00
24610;BME280;12758;47.890;11.694;2023-04-25T03:24:05;93155.69;;;9.04;100.00
24610;BME280;12758;47.890;11.694;2023-04-25T03:26:31;93140.84;;;9.22;100.00
24610;BME280;12758;47.890;11.694;2023-04-25T03:28:57;93145.91;;;9.24;100.00
24610;BME280;12758;47.890;11.694;2023-04-25T03:31:23;93144.13;;;9.40;100.00
24610;BME280;12758;47.890;11.694;2023-04-25T03:33:49;93143.13;;;9.45;100.00
24610;BME280;12758;47.890;11.694;2023-04-25T03:36:15;93140.28;;;9.29;100.00
24610;BME280;12758;47.890;11.694;2023-04-25T03:38:42;93136.22;;;9.23;100.00
24610;BME280;12758;47.890;11.694;2023-04-25T03:41:08;93142.91;;;8.47;100.00
24610;BME280;12758;47.890;11.694;2023-04-25T03:43:34;93166.91;;;6.62;100.00
24610;BME280;12758;47.890;11.694;2023-04-25T03:46:00;93172.47;;;6.22;100.00
24610;BME280;12758;47.890;11.694;2023-04-25T03:48:26;93201.59;;;5.85;100.00
24610;BME280;12758;47.890;11.694;2023-04-25T03:50:53;93214.84;;;5.55;100.00
24610;BME280;12758;47.890;11.694;2023-04-25T03:53:19;93223.69;;;6.13;100.00
24610;BME280;12758;47.890;11.694;2023-04-25T03:55:46;93211.84;;;5.26;100.00
24610;BME280;12758;47.890;11.694;2023-04-25T03:58:12;93215.03;;;5.28;100.00
24610;BME280;12758;47.890;11.694;2023-04-25T04:00:38;93203.94;;;5.21;100.00
24610;BME280;12758;47.890;11.694;2023-04-25T04:03:04;93179.34;;;5.53;100.00
24610;BME280;12758;47.890;11.694;2023-04-25T04:05:30;93173.28;;;5.39;100.00
24610;BME280;12758;47.890;11.694;2023-04-25T04:07:56;93165.06;;;6.10;100.00
24610;BME280;12758;47.890;11.694;2023-04-25T04:10:22;93152.66;;;6.52;100.00
24610;BME280;12758;47.890;11.694;2023-04-25T04:12:49;93146.75;;;6.68;100.00
24610;BME280;12758;47.890;11.694;2023-04-25T04:15:15;93147.75;;;6.02;100.00
24610;BME280;12758;47.890;11.694;2023-04-25T04:17:41;93135.00;;;6.64;100.00
24610;BME280;12758;47.890;11.694;2023-04-25T04:20:08;93137.88;;;7.14;100.00
24610;BME280;12758;47.890;11.694;2023-04-25T04:22:34;93128.22;;;7.05;100.00
24610;BME280;12758;47.890;11.694;2023-04-25T04:25:00;93129.94;;;6.62;100.00
24610;BME280;12758;47.890;11.694;2023-04-25T04:27:26;93129.22;;;6.91;100.00
24610;BME280;12758;47.890;11.694;2023-04-25T04:29:54;93132.69;;;7.39;100.00
24610;BME280;12758;47.890;11.694;2023-04-25T04:32:21;93141.00;;;7.84;100.00
24610;BME280;12758;47.890;11.694;2023-04-25T04:34:48;93140.44;;;8.12;100.00
24610;BME280;12758;47.890;11.694;2023-04-25T04:37:15;93143.69;;;8.26;100.00
24610;BME280;12758;47.890;11.694;2023-04-25T04:39:41;93146.78;;;8.37;100.00
24610;BME280;12758;47.890;11.694;2023-04-25T04:42:07;93151.91;;;8.38;100.00
24610;BME280;12758;47.890;11.694;2023-04-25T04:44:34;93160.28;;;7.74;100.00
24610;BME280;12758;47.890;11.694;2023-04-25T04:47:01;93177.25;;;6.42;100.00
24610;BME280;12758;47.890;11.694;2023-04-25T04:49:29;93220.41;;;5.28;100.00
24610;BME280;12758;47.890;11.694;2023-04-25T04:51:55;93201.22;;;4.58;100.00
24610;BME280;12758;47.890;11.694;2023-04-25T04:54:21;93200.50;;;4.44;100.00
24610;BME280;12758;47.890;11.694;2023-04-25T04:56:47;93196.81;;;4.85;100.00
24610;BME280;12758;47.890;11.694;2023-04-25T04:59:13;93191.84;;;5.09;100.00
24610;BME280;12758;47.890;11.694;2023-04-25T05:01:39;93188.13;;;5.28;100.00
24610;BME280;12758;47.890;11.694;2023-04-25T05:04:06;93172.44;;;5.87;100.00
24610;BME280;12758;47.890;11.694;2023-04-25T05:06:32;93168.47;;;5.76;100.00
24610;BME280;12758;47.890;11.694;2023-04-25T05:08:58;93161.13;;;5.50;100.00
24610;BME280;12758;47.890;11.694;2023-04-25T05:11:25;93164.53;;;5.82;100.00
24610;BME280;12758;47.890;11.694;2023-04-25T05:13:51;93160.78;;;6.00;100.00
24610;BME280;12758;47.890;11.694;2023-04-25T05:16:18;93170.44;;;6.36;100.00
24610;BME280;12758;47.890;11.694;2023-04-25T05:18:44;93162.31;;;6.53;100.00
24610;BME280;12758;47.890;11.694;2023-04-25T05:21:10;93162.31;;;6.62;100.00
24610;BME280;12758;47.890;11.694;2023-04-25T05:23:36;93158.91;;;6.91;100.00
24610;BME280;12758;47.890;11.694;2023-04-25T05:26:02;93170.91;;;7.11;100.00
24610;BME280;12758;47.890;11.694;2023-04-25T05:28:29;93163.06;;;7.27;100.00
24610;BME280;12758;47.890;11.694;2023-04-25T05:30:55;93174.97;;;7.26;100.00
24610;BME280;12758;47.890;11.694;2023-04-25T05:33:21;93174.84;;;7.14;100.00
24610;BME280;12758;47.890;11.694;2023-04-25T05:35:47;93179.00;;;7.03;100.00
24610;BME280;12758;47.890;11.694;2023-04-25T05:38:13;93185.44;;;6.72;100.00
24610;BME280;12758;47.890;11.694;2023-04-25T05:40:40;93180.56;;;6.39;100.00
24610;BME280;12758;47.890;11.694;2023-04-25T05:43:06;93171.03;;;6.50;100.00
24610;BME280;12758;47.890;11.694;2023-04-25T05:45:32;93177.81;;;6.74;100.00
24610;BME280;12758;47.890;11.694;2023-04-25T05:47:58;93164.38;;;7.12;100.00
24610;BME280;12758;47.890;11.694;2023-04-25T05:50:24;93160.34;;;7.27;100.00
24610;BME280;12758;47.890;11.694;2023-04-25T05:52:51;93153.53;;;7.59;100.00
24610;BME280;12758;47.890;11.694;2023-04-25T05:55:17;93157.38;;;7.79;100.00
24610;BME280;12758;47.890;11.694;2023-04-25T05:57:45;93161.94;;;7.87;100.00
24610;BME280;12758;47.890;11.694;2023-04-25T06:00:12;93158.59;;;7.90;100.00
24610;BME280;12758;47.890;11.694;2023-04-25T06:02:40;93169.13;;;7.83;100.00
24610;BME280;12758;47.890;11.694;2023-04-25T06:05:07;93158.81;;;7.17;100.00
24610;BME280;12758;47.890;11.694;2023-04-25T06:07:33;93148.16;;;7.80;100.00
24610;BME280;12758;47.890;11.694;2023-04-25T06:09:59;93150.19;;;7.62;100.00
24610;BME280;12758;47.890;11.694;2023-04-25T06:12:26;93141.97;;;8.01;100.00
24610;BME280;12758;47.890;11.694;2023-04-25T06:14:52;93144.94;;;8.08;100.00
24610;BME280;12758;47.890;11.694;2023-04-25T06:17:18;93141.06;;;7.97;100.00
24610;BME280;12758;47.890;11.694;2023-04-25T06:19:44;93151.34;;;7.53;100.00
24610;BME280;12758;47.890;11.694;2023-04-25T06:22:10;93148.44;;;7.87;100.00
24610;BME280;12758;47.890;11.694;2023-04-25T06:24:36;93148.50;;;8.21;100.00
24610;BME280;12758;47.890;11.694;2023-04-25T06:27:02;93146.59;;;8.21;100.00
24610;BME280;12758;47.890;11.694;2023-04-25T06:29:29;93143.69;;;8.26;100.00
24610;BME280;12758;47.890;11.694;2023-04-25T06:31:55;93148.44;;;7.87;100.00
24610;BME280;12758;47.890;11.694;2023-04-25T06:34:22;93142.50;;;8.15;100.00
24610;BME280;12758;47.890;11.694;2023-04-25T06:36:48;93149.47;;;8.37;100.00
24610;BME280;12758;47.890;11.694;2023-04-25T06:39:14;93153.97;;;8.54;100.00
24610;BME280;12758;47.890;11.694;2023-04-25T06:41:40;93152.13;;;8.04;100.00
24610;BME280;12758;47.890;11.694;2023-04-25T06:44:06;93143.16;;;8.12;100.00
24610;BME280;12758;47.890;11.694;2023-04-25T06:46:33;93153.28;;;7.73;100.00
24610;BME280;12758;47.890;11.694;2023-04-25T06:48:59;93134.31;;;7.61;100.00
24610;BME280;12758;47.890;11.694;2023-04-25T06:51:25;93137.56;;;7.45;100.00
24610;BME280;12758;47.890;11.694;2023-04-25T06:53:53;93146.91;;;6.71;100.00
24610;BME280;12758;47.890;11.694;2023-04-25T06:56:19;93148.69;;;6.59;100.00
24610;BME280;12758;47.890;11.694;2023-04-25T06:58:46;93144.22;;;6.63;100.00
24610;BME280;12758;47.890;11.694;2023-04-25T07:01:12;93142.59;;;6.70;100.00
24610;BME280;12758;47.890;11.694;2023-04-25T07:03:39;93140.91;;;7.13;100.00
24610;BME280;12758;47.890;11.694;2023-04-25T07:06:05;93136.56;;;6.82;100.00
24610;BME280;12758;47.890;11.694;2023-04-25T07:08:31;93137.47;;;6.86;100.00
24610;BME280;12758;47.890;11.694;2023-04-25T07:10:57;93135.69;;;7.08;100.00
24610;BME280;12758;47.890;11.694;2023-04-25T07:13:23;93137.13;;;6.96;100.00
24610;BME280;12758;47.890;11.694;2023-04-25T07:15:49;93128.69;;;7.07;100.00
24610;BME280;12758;47.890;11.694;2023-04-25T07:18:15;93144.81;;;7.24;100.00
24610;BME280;12758;47.890;11.694;2023-04-25T07:20:42;93135.00;;;7.19;100.00
24610;BME280;12758;47.890;11.694;2023-04-25T07:23:08;93132.81;;;7.42;100.00
24610;BME280;12758;47.890;11.694;2023-04-25T07:25:34;93130.22;;;7.55;100.00
24610;BME280;12758;47.890;11.694;2023-04-25T07:28:00;93132.16;;;7.45;100.00
24610;BME280;12758;47.890;11.694;2023-04-25T07:30:26;93145.56;;;7.33;100.00
24610;BME280;12758;47.890;11.694;2023-04-25T07:32:52;93129.75;;;7.23;100.00
24610;BME280;12758;47.890;11.694;2023-04-25T07:35:18;93134.03;;;7.15;100.00
24610;BME280;12758;47.890;11.694;2023-04-25T07:37:45;93137.88;;;7.06;100.00
24610;BME280;12758;47.890;11.694;2023-04-25T07:40:11;93131.59;;;7.31;100.00
24610;BME280;12758;47.890;11.694;2023-04-25T07:42:37;93129.25;;;7.21;100.00
24610;BME280;12758;47.890;11.694;2023-04-25T07:45:04;93120.34;;;7.59;100.00
24610;BME280;12758;47.890;11.694;2023-04-25T07:47:30;93128.06;;;7.69;100.00
24610;BME280;12758;47.890;11.694;2023-04-25T07:49:56;93131.13;;;7.59;100.00
24610;BME280;12758;47.890;11.694;2023-04-25T07:52:23;93131.53;;;7.69;100.00
24610;BME280;12758;47.890;11.694;2023-04-25T07:54:49;93132.63;;;7.77;100.00
24610;BME280;12758;47.890;11.694;2023-04-25T07:57:16;93136.72;;;7.83;100.00
24610;BME280;12758;47.890;11.694;2023-04-25T07:59:42;93137.50;;;7.84;100.00
24610;BME280;12758;47.890;11.694;2023-04-25T08:02:08;93139.72;;;7.82;100.00
24610;BME280;12758;47.890;11.694;2023-04-25T08:04:34;93137.63;;;7.87;100.00
24610;BME280;12758;47.890;11.694;2023-04-25T08:07:00;93136.63;;;7.92;100.00
24610;BME280;12758;47.890;11.694;2023-04-25T08:09:27;93135.00;;;8.00;100.00
24610;BME280;12758;47.890;11.694;2023-04-25T08:11:53;93132.56;;;8.07;100.00
24610;BME280;12758;47.890;11.694;2023-04-25T08:14:19;93135.69;;;8.09;100.00
24610;BME280;12758;47.890;11.694;2023-04-25T08:16:45;93129.44;;;8.17;100.00
24610;BME280;12758;47.890;11.694;2023-04-25T08:19:11;93138.81;;;8.40;100.00
24610;BME280;12758;47.890;11.694;2023-04-25T08:21:37;93130.91;;;8.35;100.00
24610;BME280;12758;47.890;11.694;2023-04-25T08:24:04;93131.03;;;8.18;100.00
24610;BME280;12758;47.890;11.694;2023-04-25T08:26:30;93133.41;;;7.99;100.00
24610;BME280;12758;47.890;11.694;2023-04-25T08:28:56;93122.69;;;7.90;100.00
24610;BME280;12758;47.890;11.694;2023-04-25T08:31:22;93132.16;;;8.17;100.00
24610;BME280;12758;47.890;11.694;2023-04-25T08:33:48;93130.13;;;8.68;100.00
24610;BME280;12758;47.890;11.694;2023-04-25T08:36:16;93122.88;;;8.48;100.00
24610;BME280;12758;47.890;11.694;2023-04-25T08:38:43;93126.66;;;8.47;100.00
24610;BME280;12758;47.890;11.694;2023-04-25T08:41:08;93130.56;;;8.37;100.00
24610;BME280;12758;47.890;11.694;2023-04-25T08:43:36;93131.97;;;8.43;100.00
24610;BME280;12758;47.890;11.694;2023-04-25T08:46:03;93136.97;;;8.32;100.00
24610;BME280;12758;47.890;11.694;2023-04-25T08:48:32;93134.84;;;8.17;100.00
24610;BME280;12758;47.890;11.694;2023-04-25T08:50:59;93144.06;;;7.74;100.00
24610;BME280;12758;47.890;11.694;2023-04-25T08:53:28;93140.06;;;7.51;100.00
24610;BME280;12758;47.890;11.694;2023-04-25T08:55:56;93140.72;;;7.47;100.00
24610;BME280;12758;47.890;11.694;2023-04-25T08:58:22;93150.28;;;7.45;100.00
24610;BME280;12758;47.890;11.694;2023-04-25T09:00:49;93154.69;;;7.50;100.00
24610;BME280;12758;47.890;11.694;2023-04-25T09:03:16;93154.03;;;7.53;100.00
24610;BME280;12758;47.890;11.694;2023-04-25T09:05:42;93157.28;;;7.67;100.00
24610;BME280;12758;47.890;11.694;2023-04-25T09:08:08;93164.38;;;7.80;100.00
24610;BME280;12758;47.890;11.694;2023-04-25T09:10:35;93169.13;;;7.83;100.00
24610;BME280;12758;47.890;11.694;2023-04-25T09:13:02;93150.66;;;7.64;100.00
24610;BME280;12758;47.890;11.694;2023-04-25T09:15:29;93156.44;;;7.75;100.00
24610;BME280;12758;47.890;11.694;2023-04-25T09:17:56;93155.97;;;8.03;100.00
24610;BME280;12758;47.890;11.694;2023-04-25T09:20:22;93159.09;;;8.05;100.00
24610;BME280;12758;47.890;11.694;2023-04-25T09:22:59;93163.19;;;8.11;100.00
24610;BME280;12758;47.890;11.694;2023-04-25T09:25:26;93156.75;;;8.24;100.00
24610;BME280;12758;47.890;11.694;2023-04-25T09:27:53;93157.00;;;8.31;100.00
24610;BME280;12758;47.890;11.694;2023-04-25T09:30:29;93156.16;;;8.39;100.00
24610;BME280;12758;47.890;11.694;2023-04-25T09:32:56;93154.91;;;8.58;100.00
24610;BME280;12758;47.890;11.694;2023-04-25T09:35:26;93158.31;;;8.67;100.00
24610;BME280;12758;47.890;11.694;2023-04-25T09:37:52;93152.28;;;8.95;100.00
24610;BME280;12758;47.890;11.694;2023-04-25T09:40:18;93156.88;;;9.15;100.00
24610;BME280;12758;47.890;11.694;2023-04-25T09:42:44;93153.94;;;9.45;100.00
24610;BME280;12758;47.890;11.694;2023-04-25T09:45:12;93158.47;;;9.41;100.00
24610;BME280;12758;47.890;11.694;2023-04-25T09:47:38;93157.81;;;9.44;100.00
24610;BME280;12758;47.890;11.694;2023-04-25T09:50:06;93158.44;;;9.16;100.00
24610;BME280;12758;47.890;11.694;2023-04-25T09:52:39;93164.53;;;9.13;100.00
24610;BME280;12758;47.890;11.694;2023-04-25T09:55:06;93164.03;;;8.99;100.00
24610;BME280;12758;47.890;11.694;2023-04-25T09:57:33;93161.22;;;9.07;100.00
24610;BME280;12758;47.890;11.694;2023-04-25T10:00:00;93160.72;;;9.39;100.00
24610;BME280;12758;47.890;11.694;2023-04-25T10:02:27;93162.41;;;9.43;100.00
24610;BME280;12758;47.890;11.694;2023-04-25T10:04:54;93151.00;;;9.50;100.00
24610;BME280;12758;47.890;11.694;2023-04-25T10:07:20;93160.28;;;9.49;100.00
24610;BME280;12758;47.890;11.694;2023-04-25T10:09:57;93154.63;;;9.78;100.00
24610;BME280;12758;47.890;11.694;2023-04-25T10:12:25;93154.84;;;9.73;100.00
24610;BME280;12758;47.890;11.694;2023-04-25T10:14:51;93152.69;;;9.42;100.00
24610;BME280;12758;47.890;11.694;2023-04-25T10:17:18;93151.22;;;9.32;100.00
24610;BME280;12758;47.890;11.694;2023-04-25T10:19:45;93158.66;;;9.23;100.00
24610;BME280;12758;47.890;11.694;2023-04-25T10:22:14;93165.66;;;9.24;100.00
24610;BME280;12758;47.890;11.694;2023-04-25T10:24:43;93158.09;;;9.18;100.00
24610;BME280;12758;47.890;11.694;2023-04-25T10:27:10;93162.94;;;9.12;100.00
24610;BME280;12758;47.890;11.694;2023-04-25T10:29:36;93157.28;;;9.05;100.00
24610;BME280;12758;47.890;11.694;2023-04-25T10:32:02;93159.56;;;9.15;100.00
24610;BME280;12758;47.890;11.694;2023-04-25T10:34:39;93149.88;;;9.26;100.00
24610;BME280;12758;47.890;11.694;2023-04-25T10:37:05;93164.56;;;9.38;100.00
24610;BME280;12758;47.890;11.694;2023-04-25T10:39:33;93147.97;;;9.51;100.00
24610;BME280;12758;47.890;11.694;2023-04-25T10:42:00;93141.44;;;10.17;100.00
24610;BME280;12758;47.890;11.694;2023-04-25T10:44:28;93134.81;;;10.02;100.00
24610;BME280;12758;47.890;11.694;2023-04-25T10:46:55;93142.84;;;10.11;100.00
24610;BME280;12758;47.890;11.694;2023-04-25T10:49:29;93144.91;;;9.90;100.00
24610;BME280;12758;47.890;11.694;2023-04-25T10:52:14;93140.81;;;10.08;100.00
24610;BME280;12758;47.890;11.694;2023-04-25T10:54:41;93142.84;;;10.11;100.00
24610;BME280;12758;47.890;11.694;2023-04-25T10:57:08;93150.06;;;9.95;96.00
24610;BME280;12758;47.890;11.694;2023-04-25T10:59:52;93153.72;;;9.87;100.00
24610;BME280;12758;47.890;11.694;2023-04-25T11:02:18;93153.25;;;9.72;100.00
24610;BME280;12758;47.890;11.694;2023-04-25T11:04:44;93170.22;;;9.45;100.00
24610;BME280;12758;47.890;11.694;2023-04-25T11:07:13;93169.72;;;9.30;100.00
24610;BME280;12758;47.890;11.694;2023-04-25T11:09:44;93178.66;;;8.85;100.00
24610;BME280;12758;47.890;11.694;2023-04-25T11:12:10;93185.63;;;8.53;100.00
24610;BME280;12758;47.890;11.694;2023-04-25T11:14:38;93195.84;;;8.06;100.00
24610;BME280;12758;47.890;11.694;2023-04-25T11:17:04;93206.00;;;7.79;100.00
24610;BME280;12758;47.890;11.694;2023-04-25T11:19:31;93221.38;;;7.58;100.00
24610;BME280;12758;47.890;11.694;2023-04-25T11:21:58;93224.00;;;7.28;100.00
24610;BME280;12758;47.890;11.694;2023-04-25T11:24:25;93224.38;;;7.18;100.00
24610;BME280;12758;47.890;11.694;2023-04-25T11:26:51;93234.16;;;7.31;100.00
24610;BME280;12758;47.890;11.694;2023-04-25T11:29:17;93246.56;;;7.32;100.00
24610;BME280;12758;47.890;11.694;2023-04-25T11:31:43;93247.44;;;7.54;100.00
24610;BME280;12758;47.890;11.694;2023-04-25T11:34:10;93254.56;;;7.03;100.00
24610;BME280;12758;47.890;11.694;2023-04-25T11:36:36;93258.81;;;7.12;100.00
24610;BME280;12758;47.890;11.694;2023-04-25T11:39:04;93269.50;;;6.57;100.00
24610;BME280;12758;47.890;11.694;2023-04-25T11:41:31;93272.84;;;6.45;100.00
24610;BME280;12758;47.890;11.694;2023-04-25T11:43:57;93276.81;;;6.30;100.00
24610;BME280;12758;47.890;11.694;2023-04-25T11:46:23;93278.72;;;6.56;100.00
24610;BME280;12758;47.890;11.694;2023-04-25T11:48:49;93279.50;;;6.73;100.00
24610;BME280;12758;47.890;11.694;2023-04-25T11:51:16;93285.69;;;6.74;100.00
24610;BME280;12758;47.890;11.694;2023-04-25T11:53:44;93289.50;;;6.73;100.00
24610;BME280;12758;47.890;11.694;2023-04-25T11:56:10;93286.19;;;6.59;100.00
24610;BME280;12758;47.890;11.694;2023-04-25T11:58:55;93284.69;;;7.22;100.00
24610;BME280;12758;47.890;11.694;2023-04-25T12:01:26;93292.31;;;7.20;100.00
24610;BME280;12758;47.890;11.694;2023-04-25T12:03:52;93286.66;;;6.78;100.00
24610;BME280;12758;47.890;11.694;2023-04-25T12:06:19;93293.47;;;6.58;100.00
24610;BME280;12758;47.890;11.694;2023-04-25T12:08:59;93304.50;;;6.22;100.00
24610;BME280;12758;47.890;11.694;2023-04-25T12:11:25;93293.63;;;6.62;100.00
24610;BME280;12758;47.890;11.694;2023-04-25T12:13:51;93296.28;;;6.18;100.00
24610;BME280;12758;47.890;11.694;2023-04-25T12:16:18;93286.47;;;6.31;100.00
24610;BME280;12758;47.890;11.694;2023-04-25T12:18:44;93287.91;;;6.37;100.00
24610;BME280;12758;47.890;11.694;2023-04-25T12:21:10;93278.06;;;6.41;100.00
24610;BME280;12758;47.890;11.694;2023-04-25T12:23:38;93280.59;;;6.20;100.00
24610;BME280;12758;47.890;11.694;2023-04-25T12:26:05;93281.88;;;6.40;100.00
24610;BME280;12758;47.890;11.694;2023-04-25T12:28:32;93280.00;;;6.84;100.00
24610;BME280;12758;47.890;11.694;2023-04-25T12:30:59;93273.31;;;6.90;100.00
24610;BME280;12758;47.890;11.694;2023-04-25T12:33:26;93265.38;;;6.50;100.00
24610;BME280;12758;47.890;11.694;2023-04-25T12:35:53;93269.03;;;6.89;100.00
24610;BME280;12758;47.890;11.694;2023-04-25T12:38:26;93261.56;;;7.04;100.00
24610;BME280;12758;47.890;11.694;2023-04-25T12:40:53;93262.38;;;6.78;100.00
24610;BME280;12758;47.890;11.694;2023-04-25T12:43:20;93255.19;;;6.99;100.00
24610;BME280;12758;47.890;11.694;2023-04-25T12:45:47;93263.63;;;6.98;100.00
24610;BME280;12758;47.890;11.694;2023-04-25T12:48:14;93257.25;;;7.11;100.00